OPA Logo
 
ASOS:
At:2022.07.02 1155 UTC
Wind:220° @ 4KT
Viz: 10 mile(s)
Sky: clear
Temp: 51 F (11 C)
DewP: 42 F (6 C)
RH: 71%
Baro: 30 in.
ob: KBDN 021155Z AUTO 22004KT 10SM CLR 11/06 A3000 RMK AO2

ASOS: KRDM
At:2022.07.02 1056 UTC
Wind:170° @ 5KT
Viz: 10 mile(s)
Sky: clear
Temp: 48.0 F (8.9 C)
DewP: 37.0 F (2.8 C)
RH: 65%
Baro: 65%
Apache-SSL Logo

Valid HTML 4.01!

Central Oregon OPA Chapter

Calendar


Other Calendar pages

Oregon Pilots Association Events Calendar

Washington Pilots Association Events


Web page by: gem@rellim.com